sensor_id;sensor_type;location;lat;lon;timestamp;temperature;humidity
72126;SHT31;59999;51.676;22.650;2022-12-18T00:01:32;-6.70;91.68
72126;SHT31;59999;51.676;22.650;2022-12-18T00:04:00;-6.73;91.85
72126;SHT31;59999;51.676;22.650;2022-12-18T00:06:28;-6.70;91.99
72126;SHT31;59999;51.676;22.650;2022-12-18T00:08:56;-6.69;91.86
72126;SHT31;59999;51.676;22.650;2022-12-18T00:11:27;-6.72;91.95
72126;SHT31;59999;51.676;22.650;2022-12-18T00:13:56;-6.70;92.16
72126;SHT31;59999;51.676;22.650;2022-12-18T00:16:23;-6.72;92.03
72126;SHT31;59999;51.676;22.650;2022-12-18T00:18:51;-6.72;92.26
72126;SHT31;59999;51.676;22.650;2022-12-18T00:21:19;-6.69;92.52
72126;SHT31;59999;51.676;22.650;2022-12-18T00:23:46;-6.70;92.48
72126;SHT31;59999;51.676;22.650;2022-12-18T00:26:19;-6.70;92.31
72126;SHT31;59999;51.676;22.650;2022-12-18T00:28:46;-6.72;92.33
72126;SHT31;59999;51.676;22.650;2022-12-18T00:31:15;-6.70;92.24
72126;SHT31;59999;51.676;22.650;2022-12-18T00:33:41;-6.72;92.39
72126;SHT31;59999;51.676;22.650;2022-12-18T00:36:10;-6.70;92.49
72126;SHT31;59999;51.676;22.650;2022-12-18T00:38:38;-6.69;92.53
72126;SHT31;59999;51.676;22.650;2022-12-18T00:41:05;-6.74;92.43
72126;SHT31;59999;51.676;22.650;2022-12-18T00:43:35;-6.77;92.59
72126;SHT31;59999;51.676;22.650;2022-12-18T00:46:01;-6.76;92.74
72126;SHT31;59999;51.676;22.650;2022-12-18T00:48:27;-6.80;92.67
72126;SHT31;59999;51.676;22.650;2022-12-18T00:50:53;-6.81;92.78
72126;SHT31;59999;51.676;22.650;2022-12-18T00:53:19;-6.80;92.74
72126;SHT31;59999;51.676;22.650;2022-12-18T00:55:45;-6.86;92.56
72126;SHT31;59999;51.676;22.650;2022-12-18T00:58:13;-6.87;92.63
72126;SHT31;59999;51.676;22.650;2022-12-18T01:00:39;-6.84;92.52
72126;SHT31;59999;51.676;22.650;2022-12-18T01:03:05;-6.87;92.70
72126;SHT31;59999;51.676;22.650;2022-12-18T01:05:32;-6.84;92.86
72126;SHT31;59999;51.676;22.650;2022-12-18T01:07:59;-6.80;92.77
72126;SHT31;59999;51.676;22.650;2022-12-18T01:10:25;-6.83;92.38
72126;SHT31;59999;51.676;22.650;2022-12-18T01:12:51;-6.84;92.50
72126;SHT31;59999;51.676;22.650;2022-12-18T01:15:18;-6.79;92.62
72126;SHT31;59999;51.676;22.650;2022-12-18T01:17:44;-6.79;92.68
72126;SHT31;59999;51.676;22.650;2022-12-18T01:20:11;-6.77;92.46
72126;SHT31;59999;51.676;22.650;2022-12-18T01:22:37;-6.79;92.42
72126;SHT31;59999;51.676;22.650;2022-12-18T01:25:04;-6.81;92.70
72126;SHT31;59999;51.676;22.650;2022-12-18T01:27:32;-6.83;92.54
72126;SHT31;59999;51.676;22.650;2022-12-18T01:29:58;-6.84;92.70
72126;SHT31;59999;51.676;22.650;2022-12-18T01:32:24;-6.86;92.75
72126;SHT31;59999;51.676;22.650;2022-12-18T01:34:49;-6.84;92.81
72126;SHT31;59999;51.676;22.650;2022-12-18T01:37:15;-6.86;92.84
72126;SHT31;59999;51.676;22.650;2022-12-18T01:39:41;-6.86;93.08
72126;SHT31;59999;51.676;22.650;2022-12-18T01:42:14;-6.87;93.08
72126;SHT31;59999;51.676;22.650;2022-12-18T01:45:00;-6.83;93.20
72126;SHT31;59999;51.676;22.650;2022-12-18T01:47:31;-6.83;93.10
72126;SHT31;59999;51.676;22.650;2022-12-18T01:50:02;-6.87;93.08
72126;SHT31;59999;51.676;22.650;2022-12-18T01:52:32;-6.84;93.21
72126;SHT31;59999;51.676;22.650;2022-12-18T01:54:59;-6.80;93.26
72126;SHT31;59999;51.676;22.650;2022-12-18T01:57:27;-6.76;93.41
72126;SHT31;59999;51.676;22.650;2022-12-18T01:59:57;-6.77;93.12
72126;SHT31;59999;51.676;22.650;2022-12-18T02:02:26;-6.74;93.45
72126;SHT31;59999;51.676;22.650;2022-12-18T02:04:53;-6.69;93.38
72126;SHT31;59999;51.676;22.650;2022-12-18T02:15:44;-6.65;93.03
72126;SHT31;59999;51.676;22.650;2022-12-18T02:18:23;-6.63;93.12
72126;SHT31;59999;51.676;22.650;2022-12-18T02:21:08;-6.62;93.19
72126;SHT31;59999;51.676;22.650;2022-12-18T02:23:50;-6.62;92.96
72126;SHT31;59999;51.676;22.650;2022-12-18T02:26:36;-6.57;93.18
72126;SHT31;59999;51.676;22.650;2022-12-18T02:29:12;-6.56;93.30
72126;SHT31;59999;51.676;22.650;2022-12-18T02:31:45;-6.54;93.08
72126;SHT31;59999;51.676;22.650;2022-12-18T02:34:13;-6.53;93.08
72126;SHT31;59999;51.676;22.650;2022-12-18T02:36:40;-6.57;92.93
72126;SHT31;59999;51.676;22.650;2022-12-18T02:39:10;-6.56;92.88
72126;SHT31;59999;51.676;22.650;2022-12-18T02:41:37;-6.60;92.97
72126;SHT31;59999;51.676;22.650;2022-12-18T02:44:09;-6.59;93.08
72126;SHT31;59999;51.676;22.650;2022-12-18T02:46:38;-6.57;93.05
72126;SHT31;59999;51.676;22.650;2022-12-18T02:57:46;-6.60;93.28
72126;SHT31;59999;51.676;22.650;2022-12-18T03:00:19;-6.59;93.47
72126;SHT31;59999;51.676;22.650;2022-12-18T03:02:51;-6.56;93.52
72126;SHT31;59999;51.676;22.650;2022-12-18T03:05:30;-6.57;93.45
72126;SHT31;59999;51.676;22.650;2022-12-18T03:08:01;-6.54;93.37
72126;SHT31;59999;51.676;22.650;2022-12-18T03:10:30;-6.53;93.27
72126;SHT31;59999;51.676;22.650;2022-12-18T03:13:09;-6.54;93.18
72126;SHT31;59999;51.676;22.650;2022-12-18T03:15:48;-6.52;93.03
72126;SHT31;59999;51.676;22.650;2022-12-18T03:18:28;-6.53;93.04
72126;SHT31;59999;51.676;22.650;2022-12-18T03:20:58;-6.54;93.07
72126;SHT31;59999;51.676;22.650;2022-12-18T03:23:29;-6.52;92.91
72126;SHT31;59999;51.676;22.650;2022-12-18T03:25:59;-6.52;92.50
72126;SHT31;59999;51.676;22.650;2022-12-18T03:28:28;-6.53;92.28
72126;SHT31;59999;51.676;22.650;2022-12-18T03:30:57;-6.50;92.30
72126;SHT31;59999;51.676;22.650;2022-12-18T03:36:02;-6.49;91.86
72126;SHT31;59999;51.676;22.650;2022-12-18T03:38:28;-6.47;91.90
72126;SHT31;59999;51.676;22.650;2022-12-18T03:43:38;-6.46;91.72
72126;SHT31;59999;51.676;22.650;2022-12-18T03:46:40;-6.43;91.67
72126;SHT31;59999;51.676;22.650;2022-12-18T03:51:58;-6.39;91.47
72126;SHT31;59999;51.676;22.650;2022-12-18T03:54:28;-6.40;91.25
72126;SHT31;59999;51.676;22.650;2022-12-18T03:56:59;-6.37;90.96
72126;SHT31;59999;51.676;22.650;2022-12-18T03:59:28;-6.37;90.85
72126;SHT31;59999;51.676;22.650;2022-12-18T04:01:57;-6.33;91.13
72126;SHT31;59999;51.676;22.650;2022-12-18T04:04:25;-6.32;90.54
72126;SHT31;59999;51.676;22.650;2022-12-18T04:06:53;-6.32;90.58
72126;SHT31;59999;51.676;22.650;2022-12-18T04:09:20;-6.35;90.13
72126;SHT31;59999;51.676;22.650;2022-12-18T04:11:47;-6.35;90.49
72126;SHT31;59999;51.676;22.650;2022-12-18T04:14:13;-6.35;90.00
72126;SHT31;59999;51.676;22.650;2022-12-18T04:16:39;-6.33;89.97
72126;SHT31;59999;51.676;22.650;2022-12-18T04:19:05;-6.32;89.68
72126;SHT31;59999;51.676;22.650;2022-12-18T04:21:31;-6.32;89.46
72126;SHT31;59999;51.676;22.650;2022-12-18T04:23:56;-6.37;89.25
72126;SHT31;59999;51.676;22.650;2022-12-18T04:26:23;-6.36;89.52
72126;SHT31;59999;51.676;22.650;2022-12-18T04:28:48;-6.36;89.64
72126;SHT31;59999;51.676;22.650;2022-12-18T04:31:14;-6.39;89.39
72126;SHT31;59999;51.676;22.650;2022-12-18T04:33:40;-6.40;89.42
72126;SHT31;59999;51.676;22.650;2022-12-18T04:36:07;-6.40;89.03
72126;SHT31;59999;51.676;22.650;2022-12-18T04:38:33;-6.43;88.46
72126;SHT31;59999;51.676;22.650;2022-12-18T04:40:59;-6.45;88.45
72126;SHT31;59999;51.676;22.650;2022-12-18T04:43:24;-6.53;87.54
72126;SHT31;59999;51.676;22.650;2022-12-18T04:45:50;-6.57;88.00
72126;SHT31;59999;51.676;22.650;2022-12-18T04:48:16;-6.59;88.18
72126;SHT31;59999;51.676;22.650;2022-12-18T04:50:42;-6.59;88.44
72126;SHT31;59999;51.676;22.650;2022-12-18T04:53:08;-6.60;88.36
72126;SHT31;59999;51.676;22.650;2022-12-18T04:55:34;-6.56;88.46
72126;SHT31;59999;51.676;22.650;2022-12-18T04:57:59;-6.60;87.87
72126;SHT31;59999;51.676;22.650;2022-12-18T05:00:25;-6.70;87.34
72126;SHT31;59999;51.676;22.650;2022-12-18T05:02:51;-6.72;87.41
72126;SHT31;59999;51.676;22.650;2022-12-18T05:05:17;-6.72;87.72
72126;SHT31;59999;51.676;22.650;2022-12-18T05:07:43;-6.76;87.58
72126;SHT31;59999;51.676;22.650;2022-12-18T05:10:09;-6.77;87.75
72126;SHT31;59999;51.676;22.650;2022-12-18T05:12:35;-6.81;87.98
72126;SHT31;59999;51.676;22.650;2022-12-18T05:15:21;-6.84;87.90
72126;SHT31;59999;51.676;22.650;2022-12-18T05:17:46;-6.86;87.88
72126;SHT31;59999;51.676;22.650;2022-12-18T05:20:12;-6.84;88.13
72126;SHT31;59999;51.676;22.650;2022-12-18T05:22:38;-6.91;87.57
72126;SHT31;59999;51.676;22.650;2022-12-18T05:25:04;-6.93;87.99
72126;SHT31;59999;51.676;22.650;2022-12-18T05:27:30;-6.94;87.82
72126;SHT31;59999;51.676;22.650;2022-12-18T05:29:56;-6.98;87.57
72126;SHT31;59999;51.676;22.650;2022-12-18T05:32:21;-7.00;87.61
72126;SHT31;59999;51.676;22.650;2022-12-18T05:34:47;-7.00;87.75
72126;SHT31;59999;51.676;22.650;2022-12-18T05:37:13;-7.08;87.55
72126;SHT31;59999;51.676;22.650;2022-12-18T05:39:39;-7.09;87.73
72126;SHT31;59999;51.676;22.650;2022-12-18T05:42:04;-7.12;87.98
72126;SHT31;59999;51.676;22.650;2022-12-18T05:44:30;-7.15;88.05
72126;SHT31;59999;51.676;22.650;2022-12-18T05:46:56;-7.19;88.33
72126;SHT31;59999;51.676;22.650;2022-12-18T05:49:22;-7.22;88.37
72126;SHT31;59999;51.676;22.650;2022-12-18T05:51:47;-7.21;88.63
72126;SHT31;59999;51.676;22.650;2022-12-18T05:54:13;-7.22;88.78
72126;SHT31;59999;51.676;22.650;2022-12-18T05:56:39;-7.22;88.92
72126;SHT31;59999;51.676;22.650;2022-12-18T05:59:05;-7.22;88.95
72126;SHT31;59999;51.676;22.650;2022-12-18T06:01:30;-7.22;89.20
72126;SHT31;59999;51.676;22.650;2022-12-18T06:03:56;-7.29;89.36
72126;SHT31;59999;51.676;22.650;2022-12-18T06:06:27;-7.26;89.66
72126;SHT31;59999;51.676;22.650;2022-12-18T06:08:55;-7.26;89.84
72126;SHT31;59999;51.676;22.650;2022-12-18T06:11:24;-7.21;90.11
72126;SHT31;59999;51.676;22.650;2022-12-18T06:13:54;-7.19;90.07
72126;SHT31;59999;51.676;22.650;2022-12-18T06:16:20;-7.16;90.09
72126;SHT31;59999;51.676;22.650;2022-12-18T06:18:46;-7.15;89.93
72126;SHT31;59999;51.676;22.650;2022-12-18T06:21:12;-7.14;90.30
72126;SHT31;59999;51.676;22.650;2022-12-18T06:23:38;-7.08;90.30
72126;SHT31;59999;51.676;22.650;2022-12-18T06:26:13;-7.04;90.13
72126;SHT31;59999;51.676;22.650;2022-12-18T06:28:39;-7.00;89.90
72126;SHT31;59999;51.676;22.650;2022-12-18T06:31:06;-6.98;89.95
72126;SHT31;59999;51.676;22.650;2022-12-18T06:33:33;-6.97;89.81
72126;SHT31;59999;51.676;22.650;2022-12-18T06:36:10;-6.97;89.87
72126;SHT31;59999;51.676;22.650;2022-12-18T06:38:40;-6.91;90.09
72126;SHT31;59999;51.676;22.650;2022-12-18T06:41:10;-6.88;90.05
72126;SHT31;59999;51.676;22.650;2022-12-18T06:43:36;-6.86;89.87
72126;SHT31;59999;51.676;22.650;2022-12-18T06:46:02;-6.84;89.70
72126;SHT31;59999;51.676;22.650;2022-12-18T06:48:29;-6.80;89.82
72126;SHT31;59999;51.676;22.650;2022-12-18T06:50:55;-6.74;89.70
72126;SHT31;59999;51.676;22.650;2022-12-18T06:53:21;-6.76;89.74
72126;SHT31;59999;51.676;22.650;2022-12-18T06:55:47;-6.72;89.58
72126;SHT31;59999;51.676;22.650;2022-12-18T06:58:13;-6.66;89.28
72126;SHT31;59999;51.676;22.650;2022-12-18T07:00:39;-6.63;89.55
72126;SHT31;59999;51.676;22.650;2022-12-18T07:03:05;-6.57;89.45
72126;SHT31;59999;51.676;22.650;2022-12-18T07:05:31;-6.52;89.20
72126;SHT31;59999;51.676;22.650;2022-12-18T07:07:57;-6.50;89.02
72126;SHT31;59999;51.676;22.650;2022-12-18T07:10:23;-6.42;88.96
72126;SHT31;59999;51.676;22.650;2022-12-18T07:12:49;-6.42;88.20
72126;SHT31;59999;51.676;22.650;2022-12-18T07:15:15;-6.33;88.94
72126;SHT31;59999;51.676;22.650;2022-12-18T07:17:41;-6.29;88.83
72126;SHT31;59999;51.676;22.650;2022-12-18T07:20:07;-6.24;88.07
72126;SHT31;59999;51.676;22.650;2022-12-18T07:22:33;-6.19;88.42
72126;SHT31;59999;51.676;22.650;2022-12-18T07:24:59;-6.16;87.74
72126;SHT31;59999;51.676;22.650;2022-12-18T07:27:25;-6.12;87.69
72126;SHT31;59999;51.676;22.650;2022-12-18T07:29:51;-6.08;87.31
72126;SHT31;59999;51.676;22.650;2022-12-18T07:32:16;-6.02;87.08
72126;SHT31;59999;51.676;22.650;2022-12-18T07:34:42;-5.99;87.61
72126;SHT31;59999;51.676;22.650;2022-12-18T07:37:08;-6.01;87.06
72126;SHT31;59999;51.676;22.650;2022-12-18T07:39:34;-6.01;86.77
72126;SHT31;59999;51.676;22.650;2022-12-18T07:42:00;-6.04;86.34
72126;SHT31;59999;51.676;22.650;2022-12-18T07:44:44;-6.05;86.85
72126;SHT31;59999;51.676;22.650;2022-12-18T07:47:10;-5.99;86.74
72126;SHT31;59999;51.676;22.650;2022-12-18T07:49:36;-5.95;86.65
72126;SHT31;59999;51.676;22.650;2022-12-18T07:52:02;-5.93;86.62
72126;SHT31;59999;51.676;22.650;2022-12-18T07:54:27;-5.84;86.86
72126;SHT31;59999;51.676;22.650;2022-12-18T07:56:53;-5.83;85.88
72126;SHT31;59999;51.676;22.650;2022-12-18T07:59:20;-5.84;85.60
72126;SHT31;59999;51.676;22.650;2022-12-18T08:01:45;-5.80;85.79
72126;SHT31;59999;51.676;22.650;2022-12-18T08:04:11;-5.84;84.83
72126;SHT31;59999;51.676;22.650;2022-12-18T08:06:37;-5.91;84.79
72126;SHT31;59999;51.676;22.650;2022-12-18T08:09:03;-5.99;85.45
72126;SHT31;59999;51.676;22.650;2022-12-18T08:11:29;-6.07;85.15
72126;SHT31;59999;51.676;22.650;2022-12-18T08:13:55;-6.08;84.98
72126;SHT31;59999;51.676;22.650;2022-12-18T08:16:22;-6.08;85.24
72126;SHT31;59999;51.676;22.650;2022-12-18T08:18:48;-6.02;85.59
72126;SHT31;59999;51.676;22.650;2022-12-18T08:21:17;-6.02;83.99
72126;SHT31;59999;51.676;22.650;2022-12-18T08:23:43;-6.07;84.28
72126;SHT31;59999;51.676;22.650;2022-12-18T08:26:11;-6.14;83.59
72126;SHT31;59999;51.676;22.650;2022-12-18T08:28:37;-6.21;83.91
72126;SHT31;59999;51.676;22.650;2022-12-18T08:31:03;-6.21;83.81
72126;SHT31;59999;51.676;22.650;2022-12-18T08:33:29;-6.26;84.03
72126;SHT31;59999;51.676;22.650;2022-12-18T08:35:55;-6.25;84.48
72126;SHT31;59999;51.676;22.650;2022-12-18T08:38:21;-6.21;84.43
72126;SHT31;59999;51.676;22.650;2022-12-18T08:40:48;-6.16;84.69
72126;SHT31;59999;51.676;22.650;2022-12-18T08:43:14;-6.12;83.87
72126;SHT31;59999;51.676;22.650;2022-12-18T08:45:58;-6.12;83.82
72126;SHT31;59999;51.676;22.650;2022-12-18T08:48:24;-6.11;83.11
72126;SHT31;59999;51.676;22.650;2022-12-18T08:50:57;-6.12;82.18
72126;SHT31;59999;51.676;22.650;2022-12-18T08:53:23;-6.16;82.42
72126;SHT31;59999;51.676;22.650;2022-12-18T08:55:49;-6.11;83.04
72126;SHT31;59999;51.676;22.650;2022-12-18T08:58:15;-6.04;82.93
72126;SHT31;59999;51.676;22.650;2022-12-18T09:00:41;-6.04;83.59
72126;SHT31;59999;51.676;22.650;2022-12-18T09:03:14;-6.01;81.81
72126;SHT31;59999;51.676;22.650;2022-12-18T09:05:41;-5.97;82.60
72126;SHT31;59999;51.676;22.650;2022-12-18T09:08:06;-5.99;81.94
72126;SHT31;59999;51.676;22.650;2022-12-18T09:10:33;-6.05;81.61
72126;SHT31;59999;51.676;22.650;2022-12-18T09:12:59;-6.07;82.60
72126;SHT31;59999;51.676;22.650;2022-12-18T09:15:25;-6.14;81.90
72126;SHT31;59999;51.676;22.650;2022-12-18T09:17:51;-6.18;82.05
72126;SHT31;59999;51.676;22.650;2022-12-18T09:20:18;-6.15;82.27
72126;SHT31;59999;51.676;22.650;2022-12-18T09:22:44;-6.14;82.33
72126;SHT31;59999;51.676;22.650;2022-12-18T09:25:10;-6.12;81.93
72126;SHT31;59999;51.676;22.650;2022-12-18T09:27:36;-6.11;82.14
72126;SHT31;59999;51.676;22.650;2022-12-18T09:30:03;-6.05;81.90
72126;SHT31;59999;51.676;22.650;2022-12-18T09:32:28;-6.01;81.99
72126;SHT31;59999;51.676;22.650;2022-12-18T09:34:55;-5.93;82.20
72126;SHT31;59999;51.676;22.650;2022-12-18T09:37:20;-5.90;80.74
72126;SHT31;59999;51.676;22.650;2022-12-18T09:39:46;-5.91;81.85
72126;SHT31;59999;51.676;22.650;2022-12-18T09:42:22;-5.83;82.27
72126;SHT31;59999;51.676;22.650;2022-12-18T09:44:54;-5.83;81.26
72126;SHT31;59999;51.676;22.650;2022-12-18T09:47:27;-5.77;81.24
72126;SHT31;59999;51.676;22.650;2022-12-18T09:52:49;-5.63;81.21
72126;SHT31;59999;51.676;22.650;2022-12-18T09:55:40;-5.53;81.84
72126;SHT31;59999;51.676;22.650;2022-12-18T10:00:35;-5.52;80.53
72126;SHT31;59999;51.676;22.650;2022-12-18T10:03:09;-5.49;80.54
72126;SHT31;59999;51.676;22.650;2022-12-18T10:11:50;-5.39;80.04
72126;SHT31;59999;51.676;22.650;2022-12-18T10:20:13;-5.22;80.50
72126;SHT31;59999;51.676;22.650;2022-12-18T10:27:38;-5.20;79.76
72126;SHT31;59999;51.676;22.650;2022-12-18T10:30:12;-5.25;79.30
72126;SHT31;59999;51.676;22.650;2022-12-18T10:32:39;-5.25;79.39
72126;SHT31;59999;51.676;22.650;2022-12-18T10:35:07;-5.20;80.15
72126;SHT31;59999;51.676;22.650;2022-12-18T10:37:35;-5.25;78.82
72126;SHT31;59999;51.676;22.650;2022-12-18T10:40:28;-5.28;79.69
72126;SHT31;59999;51.676;22.650;2022-12-18T10:43:11;-5.26;80.62
72126;SHT31;59999;51.676;22.650;2022-12-18T10:45:38;-5.30;78.91
72126;SHT31;59999;51.676;22.650;2022-12-18T10:48:18;-5.42;79.06
72126;SHT31;59999;51.676;22.650;2022-12-18T10:50:48;-5.44;79.63
72126;SHT31;59999;51.676;22.650;2022-12-18T10:53:29;-5.43;80.09
72126;SHT31;59999;51.676;22.650;2022-12-18T10:56:02;-5.32;81.06
72126;SHT31;59999;51.676;22.650;2022-12-18T10:58:38;-5.35;78.81
72126;SHT31;59999;51.676;22.650;2022-12-18T11:01:14;-5.35;79.98
72126;SHT31;59999;51.676;22.650;2022-12-18T11:06:19;-5.15;80.96
72126;SHT31;59999;51.676;22.650;2022-12-18T11:09:18;-5.02;79.82
72126;SHT31;59999;51.676;22.650;2022-12-18T11:11:53;-4.92;78.73
72126;SHT31;59999;51.676;22.650;2022-12-18T11:14:25;-4.76;79.65
72126;SHT31;59999;51.676;22.650;2022-12-18T11:16:52;-4.71;76.96
72126;SHT31;59999;51.676;22.650;2022-12-18T11:19:34;-4.61;78.26
72126;SHT31;59999;51.676;22.650;2022-12-18T11:22:24;-4.76;77.27
72126;SHT31;59999;51.676;22.650;2022-12-18T11:27:38;-4.66;78.22
72126;SHT31;59999;51.676;22.650;2022-12-18T11:30:27;-4.54;78.28
72126;SHT31;59999;51.676;22.650;2022-12-18T11:38:22;-4.89;78.97
72126;SHT31;59999;51.676;22.650;2022-12-18T11:41:05;-4.88;78.66
72126;SHT31;59999;51.676;22.650;2022-12-18T11:43:38;-4.84;77.70
72126;SHT31;59999;51.676;22.650;2022-12-18T11:46:17;-4.76;78.74
72126;SHT31;59999;51.676;22.650;2022-12-18T11:48:56;-4.76;77.94
72126;SHT31;59999;51.676;22.650;2022-12-18T11:51:32;-4.83;77.97
72126;SHT31;59999;51.676;22.650;2022-12-18T11:54:01;-4.95;76.78
72126;SHT31;59999;51.676;22.650;2022-12-18T11:56:36;-4.94;78.93
72126;SHT31;59999;51.676;22.650;2022-12-18T12:01:51;-4.87;78.34
72126;SHT31;59999;51.676;22.650;2022-12-18T12:04:43;-4.84;78.34
72126;SHT31;59999;51.676;22.650;2022-12-18T12:12:45;-4.88;77.72
72126;SHT31;59999;51.676;22.650;2022-12-18T12:18:01;-4.99;77.96
72126;SHT31;59999;51.676;22.650;2022-12-18T12:32:25;-5.43;81.29
72126;SHT31;59999;51.676;22.650;2022-12-18T12:37:56;-5.30;79.72
72126;SHT31;59999;51.676;22.650;2022-12-18T12:40:27;-5.36;79.82
72126;SHT31;59999;51.676;22.650;2022-12-18T12:42:59;-5.42;79.27
72126;SHT31;59999;51.676;22.650;2022-12-18T12:45:54;-5.46;80.80
72126;SHT31;59999;51.676;22.650;2022-12-18T12:50:54;-5.52;79.93
72126;SHT31;59999;51.676;22.650;2022-12-18T12:53:29;-5.60;80.36
72126;SHT31;59999;51.676;22.650;2022-12-18T12:55:56;-5.62;81.56
72126;SHT31;59999;51.676;22.650;2022-12-18T13:01:32;-5.70;81.17
72126;SHT31;59999;51.676;22.650;2022-12-18T13:04:12;-5.70;81.30
72126;SHT31;59999;51.676;22.650;2022-12-18T13:09:17;-5.71;81.75
72126;SHT31;59999;51.676;22.650;2022-12-18T13:11:45;-5.69;80.87
72126;SHT31;59999;51.676;22.650;2022-12-18T13:14:35;-5.74;81.21
72126;SHT31;59999;51.676;22.650;2022-12-18T13:20:08;-5.81;81.60
72126;SHT31;59999;51.676;22.650;2022-12-18T13:22:43;-5.83;81.94
72126;SHT31;59999;51.676;22.650;2022-12-18T13:38:23;-5.93;82.68
72126;SHT31;59999;51.676;22.650;2022-12-18T13:43:23;-6.07;82.86
72126;SHT31;59999;51.676;22.650;2022-12-18T13:48:26;-6.14;83.18
72126;SHT31;59999;51.676;22.650;2022-12-18T13:50:59;-6.12;83.32
72126;SHT31;59999;51.676;22.650;2022-12-18T13:53:53;-6.11;83.35
72126;SHT31;59999;51.676;22.650;2022-12-18T13:56:31;-6.08;83.02
72126;SHT31;59999;51.676;22.650;2022-12-18T13:59:26;-6.12;82.30
72126;SHT31;59999;51.676;22.650;2022-12-18T14:02:00;-6.19;82.49
72126;SHT31;59999;51.676;22.650;2022-12-18T14:04:29;-6.22;83.38
72126;SHT31;59999;51.676;22.650;2022-12-18T14:07:07;-6.26;83.41
72126;SHT31;59999;51.676;22.650;2022-12-18T14:09:40;-6.29;83.21
72126;SHT31;59999;51.676;22.650;2022-12-18T14:12:15;-6.29;83.40
72126;SHT31;59999;51.676;22.650;2022-12-18T14:15:00;-6.30;83.06
72126;SHT31;59999;51.676;22.650;2022-12-18T14:17:26;-6.33;83.56
72126;SHT31;59999;51.676;22.650;2022-12-18T14:19:52;-6.40;83.45
72126;SHT31;59999;51.676;22.650;2022-12-18T14:22:24;-6.43;83.49
72126;SHT31;59999;51.676;22.650;2022-12-18T14:27:47;-6.45;84.13
72126;SHT31;59999;51.676;22.650;2022-12-18T14:30:35;-6.45;83.97
72126;SHT31;59999;51.676;22.650;2022-12-18T14:33:21;-6.46;83.94
72126;SHT31;59999;51.676;22.650;2022-12-18T14:36:05;-6.46;83.95
72126;SHT31;59999;51.676;22.650;2022-12-18T14:38:36;-6.52;83.89
72126;SHT31;59999;51.676;22.650;2022-12-18T14:41:05;-6.53;84.02
72126;SHT31;59999;51.676;22.650;2022-12-18T14:43:36;-6.57;84.20
72126;SHT31;59999;51.676;22.650;2022-12-18T14:46:04;-6.63;84.13
72126;SHT31;59999;51.676;22.650;2022-12-18T14:48:34;-6.67;84.16
72126;SHT31;59999;51.676;22.650;2022-12-18T14:53:38;-6.76;84.74
72126;SHT31;59999;51.676;22.650;2022-12-18T14:56:15;-6.81;85.09
72126;SHT31;59999;51.676;22.650;2022-12-18T14:59:20;-6.81;85.36
72126;SHT31;59999;51.676;22.650;2022-12-18T15:02:10;-6.86;85.00
72126;SHT31;59999;51.676;22.650;2022-12-18T15:04:40;-6.90;85.15
72126;SHT31;59999;51.676;22.650;2022-12-18T15:07:17;-6.95;84.83
72126;SHT31;59999;51.676;22.650;2022-12-18T15:12:36;-7.29;83.73
72126;SHT31;59999;51.676;22.650;2022-12-18T15:15:03;-7.39;84.50
72126;SHT31;59999;51.676;22.650;2022-12-18T15:17:30;-7.53;84.37
72126;SHT31;59999;51.676;22.650;2022-12-18T15:20:02;-7.69;84.11
72126;SHT31;59999;51.676;22.650;2022-12-18T15:22:30;-7.82;84.95
72126;SHT31;59999;51.676;22.650;2022-12-18T15:24:57;-7.91;85.41
72126;SHT31;59999;51.676;22.650;2022-12-18T15:27:35;-8.00;86.17
72126;SHT31;59999;51.676;22.650;2022-12-18T15:30:15;-8.03;86.78
72126;SHT31;59999;51.676;22.650;2022-12-18T15:32:42;-8.01;87.56
72126;SHT31;59999;51.676;22.650;2022-12-18T15:37:38;-7.95;87.55
72126;SHT31;59999;51.676;22.650;2022-12-18T15:40:04;-7.94;87.74
72126;SHT31;59999;51.676;22.650;2022-12-18T15:42:31;-7.98;87.22
72126;SHT31;59999;51.676;22.650;2022-12-18T15:45:15;-8.15;85.51
72126;SHT31;59999;51.676;22.650;2022-12-18T15:47:41;-8.35;85.20
72126;SHT31;59999;51.676;22.650;2022-12-18T15:50:08;-8.52;85.56
72126;SHT31;59999;51.676;22.650;2022-12-18T15:52:39;-8.74;84.94
72126;SHT31;59999;51.676;22.650;2022-12-18T15:55:18;-8.96;86.16
72126;SHT31;59999;51.676;22.650;2022-12-18T15:58:03;-9.05;87.02
72126;SHT31;59999;51.676;22.650;2022-12-18T16:00:29;-9.08;88.67
72126;SHT31;59999;51.676;22.650;2022-12-18T16:02:55;-9.14;88.18
72126;SHT31;59999;51.676;22.650;2022-12-18T16:05:21;-9.25;86.62
72126;SHT31;59999;51.676;22.650;2022-12-18T16:07:48;-9.43;86.19
72126;SHT31;59999;51.676;22.650;2022-12-18T16:10:14;-9.63;86.51
72126;SHT31;59999;51.676;22.650;2022-12-18T16:12:41;-9.79;87.42
72126;SHT31;59999;51.676;22.650;2022-12-18T16:15:07;-9.97;87.08
72126;SHT31;59999;51.676;22.650;2022-12-18T16:17:33;-10.13;87.98
72126;SHT31;59999;51.676;22.650;2022-12-18T16:19:59;-10.25;88.13
72126;SHT31;59999;51.676;22.650;2022-12-18T16:22:27;-10.34;88.30
72126;SHT31;59999;51.676;22.650;2022-12-18T16:24:54;-10.42;88.47
72126;SHT31;59999;51.676;22.650;2022-12-18T16:27:23;-10.45;88.74
72126;SHT31;59999;51.676;22.650;2022-12-18T16:29:49;-10.46;88.43
72126;SHT31;59999;51.676;22.650;2022-12-18T16:32:17;-10.56;88.38
72126;SHT31;59999;51.676;22.650;2022-12-18T16:34:43;-10.59;88.72
72126;SHT31;59999;51.676;22.650;2022-12-18T16:37:11;-10.66;88.78
72126;SHT31;59999;51.676;22.650;2022-12-18T16:39:38;-10.72;88.49
72126;SHT31;59999;51.676;22.650;2022-12-18T16:42:11;-10.79;88.63
72126;SHT31;59999;51.676;22.650;2022-12-18T16:44:40;-10.83;89.67
72126;SHT31;59999;51.676;22.650;2022-12-18T16:47:06;-10.87;90.12
72126;SHT31;59999;51.676;22.650;2022-12-18T16:49:32;-10.93;89.39
72126;SHT31;59999;51.676;22.650;2022-12-18T16:52:00;-11.03;88.89
72126;SHT31;59999;51.676;22.650;2022-12-18T16:54:26;-11.14;89.21
72126;SHT31;59999;51.676;22.650;2022-12-18T16:56:55;-11.17;90.86
72126;SHT31;59999;51.676;22.650;2022-12-18T16:59:21;-11.24;89.66
72126;SHT31;59999;51.676;22.650;2022-12-18T17:01:47;-11.34;88.47
72126;SHT31;59999;51.676;22.650;2022-12-18T17:04:13;-11.37;90.25
72126;SHT31;59999;51.676;22.650;2022-12-18T17:06:42;-11.28;91.65
72126;SHT31;59999;51.676;22.650;2022-12-18T17:09:11;-11.18;91.98
72126;SHT31;59999;51.676;22.650;2022-12-18T17:11:37;-11.11;91.48
72126;SHT31;59999;51.676;22.650;2022-12-18T17:14:14;-11.03;91.49
72126;SHT31;59999;51.676;22.650;2022-12-18T17:16:41;-11.04;89.83
72126;SHT31;59999;51.676;22.650;2022-12-18T17:19:07;-11.23;87.09
72126;SHT31;59999;51.676;22.650;2022-12-18T17:21:33;-11.37;88.38
72126;SHT31;59999;51.676;22.650;2022-12-18T17:23:59;-11.31;90.51
72126;SHT31;59999;51.676;22.650;2022-12-18T17:26:27;-11.27;90.71
72126;SHT31;59999;51.676;22.650;2022-12-18T17:28:55;-11.30;89.08
72126;SHT31;59999;51.676;22.650;2022-12-18T17:31:24;-11.30;90.05
72126;SHT31;59999;51.676;22.650;2022-12-18T17:33:50;-11.14;91.73
72126;SHT31;59999;51.676;22.650;2022-12-18T17:36:17;-10.95;92.05